Data Viewer
| City | State | Eastern Time | Source | Temp | DewPt | RH | BP | 5 Min Precip | Wind Speed | Wind Dir | 5 Min Wind Max | 5 Min Wind Max Dir |
|---|---|---|---|---|---|---|---|---|---|---|---|---|
| Wilmington (ASOS) | DE | 2026-05-09 00:30 | ASOS | 57 | 39 | 51 | 29.92 | 6 | SSW | |||
| Wilmington (ASOS) | DE | 2026-05-09 06:30 | ASOS | 59 | 48 | 67 | 29.87 | 12 | S | |||
| Wilmington (ASOS) | DE | 2026-05-09 07:30 | ASOS | 59 | 48 | 67 | 29.88 | 9 | SSW | |||
| Wilmington (ASOS) | DE | 2026-05-09 07:25 | ASOS | 59 | 48 | 67 | 29.88 | 10 | SSW | |||
| Wilmington (ASOS) | DE | 2026-05-09 07:20 | ASOS | 59 | 48 | 67 | 29.88 | 12 | SSW | |||
| Wilmington (ASOS) | DE | 2026-05-09 07:15 | ASOS | 59 | 48 | 67 | 29.88 | 10 | SSW | |||
| Wilmington (ASOS) | DE | 2026-05-09 07:10 | ASOS | 59 | 48 | 67 | 29.88 | 8 | SSW | |||
| Wilmington (ASOS) | DE | 2026-05-09 07:05 | ASOS | 59 | 48 | 67 | 29.88 | 12 | S | |||
| Wilmington (ASOS) | DE | 2026-05-09 07:00 | ASOS | 59 | 48 | 67 | 29.88 | 12 | S | |||
| Wilmington (ASOS) | DE | 2026-05-09 06:50 | ASOS | 59 | 48 | 67 | 29.88 | 15 | S | |||
| Wilmington (ASOS) | DE | 2026-05-09 06:45 | ASOS | 59 | 48 | 67 | 29.88 | 12 | S | |||
| Wilmington (ASOS) | DE | 2026-05-09 06:40 | ASOS | 59 | 48 | 67 | 29.87 | 13 | S | |||
| Wilmington (ASOS) | DE | 2026-05-09 06:35 | ASOS | 59 | 48 | 67 | 29.87 | 10 | S | |||
| Wilmington (ASOS) | DE | 2026-05-09 06:25 | ASOS | 57 | 48 | 72 | 29.87 | 13 | S | |||
| Wilmington (ASOS) | DE | 2026-05-09 07:40 | ASOS | 59 | 48 | 67 | 29.89 | 9 | SSW | |||
| Wilmington (ASOS) | DE | 2026-05-09 06:20 | ASOS | 57 | 48 | 72 | 29.88 | 14 | S | |||
| Wilmington (ASOS) | DE | 2026-05-09 06:15 | ASOS | 57 | 48 | 72 | 29.87 | 12 | S | |||
| Wilmington (ASOS) | DE | 2026-05-09 06:10 | ASOS | 57 | 48 | 72 | 29.87 | 13 | S | |||
| Wilmington (ASOS) | DE | 2026-05-09 06:05 | ASOS | 57 | 48 | 72 | 29.87 | 12 | S | |||
| Wilmington (ASOS) | DE | 2026-05-09 06:00 | ASOS | 57 | 46 | 67 | 29.87 | 10 | S | |||
| Wilmington (ASOS) | DE | 2026-05-09 05:51 | ASOS | 58 | 47 | 67 | 29.87 | 12 | S | |||
| Wilmington (ASOS) | DE | 2026-05-09 05:50 | ASOS | 57 | 46 | 67 | 29.87 | 12 | S | |||
| Wilmington (ASOS) | DE | 2026-05-09 05:45 | ASOS | 57 | 46 | 67 | 29.87 | 13 | S | |||
| Wilmington (ASOS) | DE | 2026-05-09 05:40 | ASOS | 57 | 46 | 67 | 29.87 | 10 | S | |||
| Wilmington (ASOS) | DE | 2026-05-09 05:35 | ASOS | 57 | 46 | 67 | 29.87 | 9 | S | |||
| Wilmington (ASOS) | DE | 2026-05-09 05:30 | ASOS | 57 | 46 | 67 | 29.87 | 8 | S | |||
| Wilmington (ASOS) | DE | 2026-05-09 05:25 | ASOS | 57 | 46 | 67 | 29.87 | 9 | S | |||
| Wilmington (ASOS) | DE | 2026-05-09 07:35 | ASOS | 59 | 48 | 67 | 29.89 | 10 | S | |||
| Wilmington (ASOS) | DE | 2026-05-09 07:50 | ASOS | 61 | 48 | 63 | 29.89 | 10 | SSW | |||
| Wilmington (ASOS) | DE | 2026-05-09 05:15 | ASOS | 57 | 46 | 67 | 29.87 | 8 | S | |||
| Wilmington (ASOS) | DE | 2026-05-09 09:51 | ASOS | 65 | 49 | 56 | 29.88 | 8 | SW | |||
| Wilmington (ASOS) | DE | 2026-05-09 18:51 | ASOS | 62 | 51 | 67 | 29.82 | 9 | NE | |||
| Wilmington (ASOS) | DE | 2026-05-09 14:50 | ASOS | 64 | 52 | 64 | 29.85 | 8 | NNW | |||
| Wilmington (ASOS) | DE | 2026-05-09 11:15 | ASOS | 68 | 48 | 49 | 29.88 | 8 | WSW | |||
| Wilmington (ASOS) | DE | 2026-05-09 11:05 | ASOS | 66 | 50 | 56 | 29.88 | 8 | WSW | |||
| Wilmington (ASOS) | DE | 2026-05-09 11:00 | ASOS | 66 | 48 | 52 | 29.89 | 10 | W | |||
| Wilmington (ASOS) | DE | 2026-05-09 10:51 | ASOS | 66 | 49 | 54 | 29.89 | 9 | WSW | |||
| Wilmington (ASOS) | DE | 2026-05-09 10:50 | ASOS | 66 | 48 | 52 | 29.89 | 10 | WSW | |||
| Wilmington (ASOS) | DE | 2026-05-09 10:40 | ASOS | 66 | 48 | 52 | 29.88 | 12 | WSW | |||
| Wilmington (ASOS) | DE | 2026-05-09 10:25 | ASOS | 64 | 48 | 56 | 29.88 | 9 | WSW | |||
| Wilmington (ASOS) | DE | 2026-05-09 10:15 | ASOS | 64 | 48 | 56 | 29.88 | 13 | SW | |||
| Wilmington (ASOS) | DE | 2026-05-09 10:05 | ASOS | 64 | 48 | 56 | 29.88 | 13 | SW | |||
| Wilmington (ASOS) | DE | 2026-05-09 09:50 | ASOS | 64 | 48 | 56 | 29.88 | 9 | SW | |||
| Wilmington (ASOS) | DE | 2026-05-09 07:51 | ASOS | 60 | 49 | 67 | 29.89 | 9 | S | |||
| Wilmington (ASOS) | DE | 2026-05-09 09:40 | ASOS | 64 | 48 | 56 | 29.88 | 9 | SW | |||
| Wilmington (ASOS) | DE | 2026-05-09 09:25 | ASOS | 63 | 48 | 59 | 29.88 | 10 | SSW | |||
| Wilmington (ASOS) | DE | 2026-05-09 09:15 | ASOS | 63 | 48 | 59 | 29.88 | 9 | SW | |||
| Wilmington (ASOS) | DE | 2026-05-09 09:10 | ASOS | 63 | 48 | 59 | 29.88 | 8 | SW | |||
| Wilmington (ASOS) | DE | 2026-05-09 09:05 | ASOS | 63 | 48 | 59 | 29.88 | 8 | SW | |||
| Wilmington (ASOS) | DE | 2026-05-09 08:55 | ASOS | 63 | 48 | 59 | 29.88 | 7 | SW | |||
| Wilmington (ASOS) | DE | 2026-05-09 08:50 | ASOS | 61 | 48 | 63 | 29.89 | 9 | SSW | |||
| Wilmington (ASOS) | DE | 2026-05-09 08:40 | ASOS | 61 | 48 | 63 | 29.89 | 9 | SSW | |||
| Wilmington (ASOS) | DE | 2026-05-09 08:25 | ASOS | 61 | 48 | 63 | 29.89 | 9 | SSW | |||
| Wilmington (ASOS) | DE | 2026-05-09 08:20 | ASOS | 61 | 48 | 63 | 29.89 | 10 | SSW | |||
| Wilmington (ASOS) | DE | 2026-05-09 08:15 | ASOS | 61 | 48 | 63 | 29.89 | 10 | S | |||
| Wilmington (ASOS) | DE | 2026-05-09 08:05 | ASOS | 61 | 48 | 63 | 29.89 | 12 | S | |||
| Wilmington (ASOS) | DE | 2026-05-09 05:20 | ASOS | 57 | 46 | 67 | 29.87 | 7 | S | |||
| Wilmington (ASOS) | DE | 2026-05-09 05:10 | ASOS | 57 | 46 | 67 | 29.87 | 7 | S | |||
| Wilmington (ASOS) | DE | 2026-05-09 00:35 | ASOS | 57 | 39 | 51 | 29.93 | 8 | SW | |||
| Wilmington (ASOS) | DE | 2026-05-09 01:45 | ASOS | 55 | 43 | 62 | 29.91 | 6 | S | |||
| Wilmington (ASOS) | DE | 2026-05-09 02:35 | ASOS | 55 | 43 | 62 | 29.90 | 5 | S | |||
| Wilmington (ASOS) | DE | 2026-05-09 02:30 | ASOS | 54 | 43 | 67 | 29.90 | 5 | S | |||
| Wilmington (ASOS) | DE | 2026-05-09 02:25 | ASOS | 54 | 43 | 67 | 29.90 | 6 | S | |||
| Wilmington (ASOS) | DE | 2026-05-09 02:20 | ASOS | 55 | 43 | 62 | 29.91 | 6 | S | |||
| Wilmington (ASOS) | DE | 2026-05-09 02:15 | ASOS | 54 | 43 | 67 | 29.91 | 6 | S | |||
| Wilmington (ASOS) | DE | 2026-05-09 02:10 | ASOS | 54 | 43 | 67 | 29.91 | 6 | S | |||
| Wilmington (ASOS) | DE | 2026-05-09 02:05 | ASOS | 54 | 43 | 67 | 29.91 | 6 | S | |||
| Wilmington (ASOS) | DE | 2026-05-09 02:00 | ASOS | 54 | 43 | 67 | 29.91 | 6 | S | |||
| Wilmington (ASOS) | DE | 2026-05-09 01:55 | ASOS | 55 | 43 | 62 | 29.91 | 5 | S | |||
| Wilmington (ASOS) | DE | 2026-05-09 01:51 | ASOS | 56 | 42 | 60 | 29.91 | 6 | S | |||
| Wilmington (ASOS) | DE | 2026-05-09 01:50 | ASOS | 55 | 43 | 62 | 29.91 | 6 | SSW | |||
| Wilmington (ASOS) | DE | 2026-05-09 01:40 | ASOS | 55 | 43 | 62 | 29.91 | 6 | S | |||
| Wilmington (ASOS) | DE | 2026-05-09 02:45 | ASOS | 54 | 43 | 67 | 29.90 | 5 | SSW | |||
| Wilmington (ASOS) | DE | 2026-05-09 01:35 | ASOS | 55 | 43 | 62 | 29.91 | 7 | S | |||
| Wilmington (ASOS) | DE | 2026-05-09 01:30 | ASOS | 55 | 43 | 62 | 29.91 | 7 | S | |||
| Wilmington (ASOS) | DE | 2026-05-09 01:25 | ASOS | 55 | 41 | 58 | 29.91 | 7 | S | |||
| Wilmington (ASOS) | DE | 2026-05-09 01:20 | ASOS | 55 | 41 | 58 | 29.92 | 6 | S | |||
| Wilmington (ASOS) | DE | 2026-05-09 01:15 | ASOS | 55 | 41 | 58 | 29.92 | 6 | SSW | |||
| Wilmington (ASOS) | DE | 2026-05-09 01:10 | ASOS | 55 | 41 | 58 | 29.92 | 6 | SSW | |||
| Wilmington (ASOS) | DE | 2026-05-09 01:05 | ASOS | 55 | 41 | 58 | 29.92 | 5 | SSW | |||
| Wilmington (ASOS) | DE | 2026-05-09 00:55 | ASOS | 57 | 41 | 55 | 29.92 | 5 | SSW | |||
| Wilmington (ASOS) | DE | 2026-05-09 00:51 | ASOS | 57 | 41 | 55 | 29.92 | 5 | SW | |||
| Wilmington (ASOS) | DE | 2026-05-09 00:50 | ASOS | 57 | 41 | 55 | 29.92 | 6 | SSW | |||
| Wilmington (ASOS) | DE | 2026-05-09 00:45 | ASOS | 57 | 41 | 55 | 29.92 | 5 | SSW | |||
| Wilmington (ASOS) | DE | 2026-05-09 00:40 | ASOS | 57 | 41 | 55 | 29.93 | 8 | SSW | |||
| Wilmington (ASOS) | DE | 2026-05-09 02:40 | ASOS | 55 | 43 | 62 | 29.90 | 3 | S | |||
| Wilmington (ASOS) | DE | 2026-05-09 02:50 | ASOS | 55 | 43 | 62 | 29.90 | 5 | S | |||
| Wilmington (ASOS) | DE | 2026-05-09 05:05 | ASOS | 57 | 46 | 67 | 29.87 | 7 | S | |||
| Wilmington (ASOS) | DE | 2026-05-09 04:00 | ASOS | 55 | 44 | 67 | 29.89 | 6 | S | |||
| Wilmington (ASOS) | DE | 2026-05-09 05:00 | ASOS | 57 | 46 | 67 | 29.88 | 7 | SSW | |||
| Wilmington (ASOS) | DE | 2026-05-09 04:55 | ASOS | 57 | 46 | 67 | 29.88 | 6 | SSW | |||
| Wilmington (ASOS) | DE | 2026-05-09 04:51 | ASOS | 56 | 46 | 69 | 29.88 | 6 | SSW | |||
| Wilmington (ASOS) | DE | 2026-05-09 04:50 | ASOS | 55 | 46 | 72 | 29.88 | 5 | SSW | |||
| Wilmington (ASOS) | DE | 2026-05-09 04:45 | ASOS | 55 | 46 | 72 | 29.88 | 5 | SSW | |||
| Wilmington (ASOS) | DE | 2026-05-09 04:40 | ASOS | 55 | 46 | 72 | 29.88 | 3 | SSW | |||
| Wilmington (ASOS) | DE | 2026-05-09 04:35 | ASOS | 55 | 46 | 72 | 29.88 | 5 | SSW | |||
| Wilmington (ASOS) | DE | 2026-05-09 04:30 | ASOS | 55 | 46 | 72 | 29.89 | 5 | SSW | |||
| Wilmington (ASOS) | DE | 2026-05-09 04:25 | ASOS | 55 | 46 | 72 | 29.89 | 6 | S | |||
| Wilmington (ASOS) | DE | 2026-05-09 04:20 | ASOS | 55 | 46 | 72 | 29.88 | 6 | S | |||
| Wilmington (ASOS) | DE | 2026-05-09 04:15 | ASOS | 55 | 46 | 72 | 29.88 | 6 | S | |||
| Wilmington (ASOS) | DE | 2026-05-09 04:05 | ASOS | 55 | 44 | 67 | 29.89 | 7 | S | |||
| Wilmington (ASOS) | DE | 2026-05-09 03:51 | ASOS | 55 | 45 | 69 | 29.89 | 5 | SSW | |||
| Wilmington (ASOS) | DE | 2026-05-09 02:51 | ASOS | 55 | 44 | 66 | 29.90 | 5 | S | |||
| Wilmington (ASOS) | DE | 2026-05-09 03:50 | ASOS | 55 | 44 | 67 | 29.89 | 5 | SSW | |||
| Wilmington (ASOS) | DE | 2026-05-09 03:45 | ASOS | 55 | 44 | 67 | 29.89 | 3 | SSW | |||
| Wilmington (ASOS) | DE | 2026-05-09 03:40 | ASOS | 55 | 44 | 67 | 29.89 | 5 | SSW | |||
| Wilmington (ASOS) | DE | 2026-05-09 03:35 | ASOS | 55 | 44 | 67 | 29.89 | 5 | SSW | |||
| Wilmington (ASOS) | DE | 2026-05-09 03:30 | ASOS | 55 | 44 | 67 | 29.89 | 7 | S | |||
| Wilmington (ASOS) | DE | 2026-05-09 03:25 | ASOS | 55 | 44 | 67 | 29.89 | 6 | S | |||
| Wilmington (ASOS) | DE | 2026-05-09 03:20 | ASOS | 55 | 44 | 67 | 29.89 | 6 | S | |||
| Wilmington (ASOS) | DE | 2026-05-09 03:15 | ASOS | 55 | 44 | 67 | 29.89 | 3 | SSW | |||
| Wilmington (ASOS) | DE | 2026-05-09 03:10 | ASOS | 55 | 44 | 67 | 29.89 | 5 | SSW | |||
| Wilmington (ASOS) | DE | 2026-05-09 03:05 | ASOS | 54 | 45 | 71 | 29.89 | 5 | SSW | |||
| Wilmington (ASOS) | DE | 2026-05-09 03:00 | ASOS | 54 | 45 | 71 | 29.89 | 6 | S | |||
| Wilmington (ASOS) | DE | 2026-05-09 02:55 | ASOS | 54 | 45 | 71 | 29.89 | 6 | S | |||
| Wilmington (ASOS) | DE | 2026-05-09 22:05 | ASOS | 55 | 50 | 82 | 29.85 | 0 | N |
data collection created in 0.019805908203125 (queried in 0.006391) rendered in: 0.00016188621520996

